Gillam Airport
CYGX : now visible

Airfield :











YOU CAN JOIN US ON...

 
LOGIN :

Register | Disclaimer

   EN    FR    IT 

 









Legend :    VFR   Marginal VFR   IFR   Intensive IFR   Very Intensive IFR
Visi :
Ceiling :
>= 8 km
>= 3000ft
5 to 8 km
1000 to 3000 ft
1500m to 5 km
500 to 1000 ft
800 to 1500m
200 to 500 ft
< 800m
< 200 ft
Symbols :   Thunderstorms  Fog  Heavy snow  Heavy precipitations  Wind > 20 kt






- Airport Elevation : 476 ft
- IATA code : YGX


CYGX - Gillam

CURRENT METAR :
  • 010500Z 05008G15KT 15SM -SN OVC028 M13/M15 A3021 RMK SC8 SLP246

EXPIRED METARs :
  • 010400Z 05008G20KT 15SM -SN OVC028 M12/M15 A3022 RMK SC8 SLP248
  • 010329Z 05009G15KT 15SM -SN BKN028 M12/M15 A3022 RMK SC7 SLP248
  • 010300Z 05009G16KT 15SM BKN028 M12/M15 A3022 RMK SC7 SLP249

TAF AMD TAF CYGX
Valid from the 01 at 05:00 until the 01 at 13:00 UTC


010505Z 0105/0113 05012KT P6SM OVC025
TEMPO 0105/0107 6SM -SN OVC015
FM010700 04010KT 4SM -SN BR OVC008
TEMPO 0107/0113 P6SM NSW OVC015 RMK NXT FCST BY 010700Z



MET'MAP, your aeronautical weather chart ! - Copyright ORBIFLY December 2007 - Disclaimer

ORBIFLY MET'MAP TEAM :

Programming & Development : Alexandra Zaïnal
Concept & original design : Baudouin d'Aumeries
Assistance for programming : Marc-Olivier Méhu
Technical & hardware support : Manuel Goepfert

Contact : metmap@orbifly.com




SOURCES & CREDITS :

   NOAA       Earth
Advisory